createdAt,value
2018-04-01T00:00:21.937Z,4.33
2018-04-01T00:02:49.304Z,4.47
2018-04-01T00:05:17.400Z,4.97
2018-04-01T00:07:44.779Z,4.03
2018-04-01T00:10:12.157Z,5.03
2018-04-01T00:12:39.508Z,4.50
2018-04-01T00:15:06.951Z,4.50
2018-04-01T00:17:34.312Z,4.40
2018-04-01T00:20:01.709Z,4.40
2018-04-01T00:22:29.026Z,4.53
2018-04-01T00:24:56.384Z,4.60
2018-04-01T00:27:23.726Z,4.53
2018-04-01T00:29:51.128Z,4.43
2018-04-01T00:32:18.480Z,4.03
2018-04-01T00:34:45.910Z,4.20
2018-04-01T00:37:13.267Z,4.37
2018-04-01T00:39:40.648Z,4.83
2018-04-01T00:42:08.025Z,4.60
2018-04-01T00:44:35.361Z,4.97
2018-04-01T00:47:02.769Z,5.10
2018-04-01T00:49:30.121Z,4.90
2018-04-01T00:51:57.512Z,4.37
2018-04-01T00:54:24.858Z,4.43
2018-04-01T00:56:52.215Z,5.03
2018-04-01T00:59:19.561Z,4.53
2018-04-01T01:01:46.917Z,4.57
2018-04-01T01:04:14.383Z,4.73
2018-04-01T01:06:41.736Z,4.50
2018-04-01T01:09:09.151Z,4.57
2018-04-01T01:11:36.483Z,4.40
2018-04-01T01:14:03.840Z,4.60
2018-04-01T01:16:31.189Z,4.73
2018-04-01T01:18:58.543Z,4.27
2018-04-01T01:21:25.903Z,4.37
2018-04-01T01:23:53.260Z,4.20
2018-04-01T01:26:20.622Z,4.50
2018-04-01T01:28:48.098Z,4.77
2018-04-01T01:31:15.460Z,4.43
2018-04-01T01:33:42.792Z,3.87
2018-04-01T01:36:10.148Z,4.03
2018-04-01T01:38:37.510Z,4.03
2018-04-01T01:41:04.922Z,4.17
2018-04-01T01:43:32.283Z,4.10
2018-04-01T01:45:59.635Z,4.50
2018-04-01T01:48:27.750Z,4.43
2018-04-01T01:50:55.097Z,3.90
2018-04-01T01:53:22.485Z,4.30
2018-04-01T01:55:49.847Z,3.93
2018-04-01T01:58:17.344Z,3.87
2018-04-01T02:00:44.685Z,3.93
2018-04-01T02:03:12.057Z,3.70
2018-04-01T02:05:39.397Z,4.50
2018-04-01T02:08:06.755Z,4.13
2018-04-01T02:10:34.109Z,4.20
2018-04-01T02:13:01.467Z,4.07
2018-04-01T02:15:29.488Z,4.57
2018-04-01T02:17:56.821Z,4.03
2018-04-01T02:20:24.184Z,4.50
2018-04-01T02:22:52.080Z,4.33
2018-04-01T02:25:19.442Z,4.60
2018-04-01T02:27:46.806Z,4.40
2018-04-01T02:30:14.932Z,4.20
2018-04-01T02:32:42.294Z,4.60
2018-04-01T02:35:09.644Z,4.37
2018-04-01T02:37:36.992Z,4.13
2018-04-01T02:40:04.390Z,4.57
2018-04-01T02:42:31.693Z,3.97
2018-04-01T02:44:59.040Z,4.17
2018-04-01T02:47:26.408Z,4.10
2018-04-01T02:49:53.857Z,3.53
2018-04-01T02:52:21.201Z,3.50
2018-04-01T02:54:48.557Z,3.30
2018-04-01T02:57:15.893Z,3.07
2018-04-01T02:59:44.045Z,2.47
2018-04-01T03:02:11.386Z,2.03
2018-04-01T03:04:38.801Z,2.60
2018-04-01T03:07:06.068Z,2.93
2018-04-01T03:09:33.443Z,2.30
2018-04-01T03:12:00.791Z,2.13
2018-04-01T03:14:28.118Z,2.87
2018-04-01T03:16:55.475Z,2.60
2018-04-01T03:19:22.851Z,2.87
2018-04-01T03:21:50.216Z,2.70
2018-04-01T03:24:17.575Z,2.90
2018-04-01T03:26:44.944Z,3.00
2018-04-01T03:29:12.285Z,2.90
2018-04-01T03:31:39.647Z,3.20
2018-04-01T03:34:07.019Z,3.07
2018-04-01T03:36:34.376Z,3.13
2018-04-01T03:39:02.494Z,3.37
2018-04-01T03:41:29.834Z,3.20
2018-04-01T03:43:57.180Z,2.80
2018-04-01T03:46:24.522Z,2.97
2018-04-01T03:48:51.894Z,3.60
2018-04-01T03:51:19.223Z,3.23
2018-04-01T03:53:46.612Z,3.67
2018-04-01T03:56:13.957Z,4.07
2018-04-01T03:58:41.470Z,4.57
2018-04-01T04:01:08.826Z,3.63
2018-04-01T04:03:36.162Z,4.10
2018-04-01T04:06:03.516Z,3.90
2018-04-01T04:08:30.847Z,4.10
2018-04-01T04:10:58.208Z,3.73
2018-04-01T04:13:25.552Z,4.23
2018-04-01T04:15:53.427Z,4.70
2018-04-01T04:18:20.783Z,5.07
2018-04-01T04:20:48.160Z,4.83
2018-04-01T04:23:15.509Z,4.13
2018-04-01T04:25:42.851Z,5.37
2018-04-01T04:28:10.203Z,4.67
2018-04-01T04:30:37.539Z,5.40
2018-04-01T04:33:04.966Z,4.27
2018-04-01T04:35:32.487Z,4.53
2018-04-01T04:37:59.862Z,4.03
2018-04-01T04:40:27.182Z,4.73
2018-04-01T04:42:54.537Z,3.60
2018-04-01T04:45:21.893Z,4.47
2018-04-01T04:47:49.240Z,4.23
2018-04-01T04:50:16.597Z,3.83
2018-04-01T04:52:43.935Z,3.80
2018-04-01T04:55:11.292Z,3.90
2018-04-01T04:57:38.647Z,3.80
2018-04-01T05:00:06.107Z,4.03
2018-04-01T05:02:33.533Z,4.20
2018-04-01T05:05:00.888Z,3.87
2018-04-01T05:07:28.233Z,4.47
2018-04-01T05:09:56.344Z,3.70
2018-04-01T05:12:23.709Z,4.00
2018-04-01T05:14:51.059Z,4.50
2018-04-01T05:17:18.416Z,3.83
2018-04-01T05:19:45.781Z,3.70
2018-04-01T05:22:13.620Z,4.00
2018-04-01T05:24:40.996Z,4.10
2018-04-01T05:27:08.338Z,3.13
2018-04-01T05:29:35.708Z,3.70
2018-04-01T05:32:03.071Z,3.97
2018-04-01T05:34:30.461Z,3.47
2018-04-01T05:36:57.880Z,3.67
2018-04-01T05:39:26.064Z,3.17
2018-04-01T05:41:53.674Z,3.50
2018-04-01T05:44:21.110Z,3.30
2018-04-01T05:46:48.475Z,3.43
2018-04-01T05:49:15.803Z,3.57
2018-04-01T05:51:43.150Z,4.13
2018-04-01T05:54:10.649Z,3.60
2018-04-01T05:56:38.015Z,3.60
2018-04-01T05:59:05.359Z,3.17
2018-04-01T06:01:32.832Z,3.67
2018-04-01T06:04:00.186Z,3.50
2018-04-01T06:06:27.526Z,3.80
2018-04-01T06:08:54.925Z,3.90
2018-04-01T06:11:22.337Z,4.00
2018-04-01T06:13:49.693Z,4.07
2018-04-01T06:16:17.039Z,3.93
2018-04-01T06:18:45.251Z,4.23
2018-04-01T06:21:13.406Z,3.17
2018-04-01T06:23:41.078Z,4.30
2018-04-01T06:26:08.715Z,4.40
2018-04-01T06:28:36.100Z,4.60
2018-04-01T06:31:03.543Z,4.23
2018-04-01T06:33:30.887Z,4.67
2018-04-01T06:35:58.257Z,4.87
2018-04-01T06:38:25.665Z,4.87
2018-04-01T06:40:53.140Z,4.80
2018-04-01T06:43:20.476Z,4.70
2018-04-01T06:45:47.852Z,5.63
2018-04-01T06:48:15.542Z,5.50
2018-04-01T06:50:43.000Z,4.60
2018-04-01T06:53:10.431Z,5.47
2018-04-01T06:55:37.800Z,6.10
2018-04-01T06:58:05.267Z,6.40
2018-04-01T07:00:32.603Z,6.47
2018-04-01T07:02:59.950Z,6.33
2018-04-01T07:05:28.095Z,6.13
2018-04-01T07:07:56.355Z,5.80
2018-04-01T07:10:23.742Z,5.57
2018-04-01T07:12:51.084Z,6.13
2018-04-01T07:15:18.434Z,6.37
2018-04-01T07:17:45.784Z,6.03
2018-04-01T07:20:13.141Z,6.60
2018-04-01T07:22:40.610Z,6.40
2018-04-01T07:25:07.960Z,7.23
2018-04-01T07:27:35.305Z,5.77
2018-04-01T07:30:02.671Z,5.67
2018-04-01T07:32:30.027Z,7.37
2018-04-01T07:34:57.404Z,6.50
2018-04-01T07:37:24.769Z,6.10
2018-04-01T07:39:52.097Z,6.00
2018-04-01T07:42:19.494Z,6.13
2018-04-01T07:44:46.786Z,6.47
2018-04-01T07:47:14.148Z,5.43
2018-04-01T07:49:41.567Z,5.73
2018-04-01T07:52:08.933Z,5.90
2018-04-01T07:54:36.271Z,4.77
2018-04-01T07:57:03.619Z,4.40
2018-04-01T07:59:30.989Z,3.70
2018-04-01T08:01:58.331Z,3.73
2018-04-01T08:04:25.700Z,3.70
2018-04-01T08:06:53.053Z,3.47
2018-04-01T08:09:20.482Z,3.93
2018-04-01T08:11:47.935Z,3.20
2018-04-01T08:14:15.307Z,2.50
2018-04-01T08:16:42.666Z,2.07
2018-04-01T08:19:10.012Z,2.10
2018-04-01T08:21:37.372Z,2.50
2018-04-01T08:24:04.728Z,2.20
2018-04-01T08:26:32.091Z,2.20
2018-04-01T08:29:00.060Z,2.03
2018-04-01T08:31:27.422Z,1.70
2018-04-01T08:33:54.759Z,1.43
2018-04-01T08:36:22.385Z,1.60
2018-04-01T08:38:50.258Z,1.27
2018-04-01T08:41:17.662Z,1.50
2018-04-01T08:43:45.631Z,1.30
2018-04-01T08:46:12.980Z,1.60
2018-04-01T08:48:40.342Z,1.10
2018-04-01T08:51:07.709Z,1.40
2018-04-01T08:53:35.589Z,1.40
2018-04-01T08:56:02.948Z,1.40
2018-04-01T08:58:31.190Z,1.13
2018-04-01T09:00:58.546Z,1.27
2018-04-01T09:03:25.897Z,1.50
2018-04-01T09:05:54.046Z,1.70
2018-04-01T09:08:21.423Z,1.27
2018-04-01T09:10:48.777Z,1.70
2018-04-01T09:13:16.129Z,1.33
2018-04-01T09:15:44.291Z,1.80
2018-04-01T09:18:11.653Z,1.80
2018-04-01T09:20:39.077Z,1.77
2018-04-01T09:23:06.429Z,1.63
2018-04-01T09:25:35.318Z,1.63
2018-04-01T09:28:03.443Z,1.93
2018-04-01T09:30:30.787Z,1.60
2018-04-01T09:32:58.154Z,1.50
2018-04-01T09:35:25.556Z,1.60
2018-04-01T09:37:53.686Z,1.83
2018-04-01T09:40:21.029Z,1.20
2018-04-01T09:42:48.411Z,1.53
2018-04-01T09:45:15.860Z,1.50
2018-04-01T09:47:43.295Z,1.10
2018-04-01T09:50:10.753Z,1.80
2018-04-01T09:52:38.114Z,1.50
2018-04-01T09:55:05.455Z,1.30
2018-04-01T09:57:32.800Z,1.40
2018-04-01T10:00:00.769Z,1.50
2018-04-01T10:02:28.901Z,1.17
2018-04-01T10:05:12.808Z,1.50
2018-04-01T10:07:40.900Z,1.10
2018-04-01T10:10:09.004Z,1.30
2018-04-01T10:12:37.108Z,1.30
2018-04-01T10:15:05.201Z,1.60
2018-04-01T10:17:33.303Z,1.67
2018-04-01T10:20:01.443Z,1.50
2018-04-01T10:22:29.572Z,1.53
2018-04-01T10:24:57.741Z,1.30
2018-04-01T10:27:25.919Z,1.93
2018-04-01T10:29:54.012Z,1.60
2018-04-01T10:32:22.104Z,1.70
2018-04-01T10:34:50.203Z,1.50
2018-04-01T10:37:18.319Z,1.47
2018-04-01T10:39:46.419Z,1.57
2018-04-01T10:42:14.549Z,1.40
2018-04-01T10:44:42.752Z,1.40
2018-04-01T10:47:11.271Z,1.20
2018-04-01T10:49:39.374Z,1.30
2018-04-01T10:52:07.555Z,1.40
2018-04-01T10:54:34.913Z,1.20
2018-04-01T10:57:02.284Z,1.40
2018-04-01T10:59:29.684Z,1.60
2018-04-01T11:01:57.061Z,1.30
2018-04-01T11:04:25.087Z,1.30
2018-04-01T11:06:52.430Z,1.57
2018-04-01T11:09:19.807Z,1.60
2018-04-01T11:11:47.183Z,1.40
2018-04-01T11:14:14.549Z,1.43
2018-04-01T11:16:42.688Z,1.53
2018-04-01T11:19:10.049Z,1.40
2018-04-01T11:21:37.404Z,1.57
2018-04-01T11:24:04.903Z,1.50
2018-04-01T11:26:32.245Z,1.40
2018-04-01T11:28:59.603Z,1.60
2018-04-01T11:31:26.969Z,1.40
2018-04-01T11:33:54.328Z,1.50
2018-04-01T11:36:21.731Z,1.30
2018-04-01T11:38:49.087Z,1.10
2018-04-01T11:41:16.447Z,1.27
2018-04-01T11:43:43.802Z,1.40
2018-04-01T11:46:11.181Z,1.40
2018-04-01T11:48:38.542Z,0.80
2018-04-01T11:51:06.681Z,2.73
2018-04-01T11:53:34.093Z,1.40
2018-04-01T11:56:01.571Z,1.53
2018-04-01T11:58:28.972Z,1.40
2018-04-01T12:00:56.345Z,1.30
2018-04-01T12:03:23.684Z,1.03
2018-04-01T12:05:51.795Z,1.30
2018-04-01T12:08:19.181Z,1.20
2018-04-01T12:10:47.005Z,1.10
2018-04-01T12:13:14.348Z,1.13
2018-04-01T12:15:41.711Z,1.30
2018-04-01T12:18:09.073Z,1.30
2018-04-01T12:20:36.471Z,0.90
2018-04-01T12:23:03.825Z,1.20
2018-04-01T12:25:31.240Z,1.13
2018-04-01T12:27:58.596Z,0.90
2018-04-01T12:30:25.960Z,1.10
2018-04-01T12:32:53.411Z,1.00
2018-04-01T12:35:20.764Z,1.30
2018-04-01T12:37:48.123Z,0.97
2018-04-01T12:40:15.495Z,0.83
2018-04-01T12:42:42.851Z,0.70
2018-04-01T12:45:10.222Z,0.70
2018-04-01T12:47:37.690Z,0.63
2018-04-01T12:50:05.051Z,0.67
2018-04-01T12:52:33.228Z,0.70
2018-04-01T12:55:01.378Z,0.70
2018-04-01T12:57:33.302Z,0.90
2018-04-01T13:00:00.875Z,0.60
2018-04-01T13:02:29.416Z,0.60
2018-04-01T13:04:57.160Z,0.80
2018-04-01T13:07:25.277Z,0.80
2018-04-01T13:09:52.647Z,0.80
2018-04-01T13:12:19.998Z,0.63
2018-04-01T13:14:47.354Z,0.67
2018-04-01T13:17:14.737Z,0.90
2018-04-01T13:19:42.093Z,0.60
2018-04-01T13:22:09.859Z,0.63
2018-04-01T13:24:37.515Z,0.90
2018-04-01T13:27:04.879Z,0.70
2018-04-01T13:29:32.255Z,0.60
2018-04-01T13:31:59.631Z,0.40
2018-04-01T13:34:27.051Z,0.50
2018-04-01T13:36:54.407Z,0.57
2018-04-01T13:39:21.767Z,0.80
2018-04-01T13:41:49.129Z,0.80
2018-04-01T13:44:16.503Z,0.93
2018-04-01T13:46:43.896Z,0.80
2018-04-01T13:49:11.277Z,1.30
2018-04-01T13:51:38.759Z,1.00
2018-04-01T13:54:07.044Z,0.77
2018-04-01T13:56:35.316Z,1.03
2018-04-01T13:59:03.475Z,0.80
2018-04-01T14:01:30.857Z,1.00
2018-04-01T14:03:58.204Z,0.87
2018-04-01T14:06:25.566Z,0.70
2018-04-01T14:08:52.932Z,0.83
2018-04-01T14:11:20.292Z,0.97
2018-04-01T14:13:47.728Z,1.23
2018-04-01T14:16:16.239Z,1.23
2018-04-01T14:18:43.593Z,1.10
2018-04-01T14:21:10.976Z,1.10
2018-04-01T14:23:38.335Z,1.10
2018-04-01T14:26:05.710Z,0.90
2018-04-01T14:28:33.088Z,0.77
2018-04-01T14:31:00.440Z,0.80
2018-04-01T14:33:27.864Z,0.97
2018-04-01T14:35:55.669Z,0.97
2018-04-01T14:38:23.048Z,0.57
2018-04-01T14:40:50.415Z,0.60
2018-04-01T14:43:17.823Z,0.70
2018-04-01T14:45:45.933Z,0.80
2018-04-01T14:48:13.298Z,0.73
2018-04-01T14:50:40.665Z,0.90
2018-04-01T14:53:08.022Z,0.90
2018-04-01T14:55:35.393Z,0.97
2018-04-01T14:58:02.767Z,0.90
2018-04-01T15:00:30.165Z,0.83
2018-04-01T15:02:58.403Z,0.83
2018-04-01T15:05:25.846Z,1.20
2018-04-01T15:07:53.202Z,1.00
2018-04-01T15:10:21.328Z,1.03
2018-04-01T15:12:48.689Z,1.30
2018-04-01T15:15:16.041Z,1.17
2018-04-01T15:17:43.400Z,1.30
2018-04-01T15:20:10.757Z,1.57
2018-04-01T15:22:38.163Z,1.40
2018-04-01T15:25:05.542Z,1.33
2018-04-01T15:27:32.892Z,1.30
2018-04-01T15:30:00.269Z,1.07
2018-04-01T15:32:27.628Z,1.27
2018-04-01T15:34:55.354Z,1.30
2018-04-01T15:37:22.696Z,1.30
2018-04-01T15:39:50.106Z,1.43
2018-04-01T15:42:17.436Z,1.67
2018-04-01T15:44:44.796Z,1.70
2018-04-01T15:47:12.196Z,1.60
2018-04-01T15:49:39.543Z,1.70
2018-04-01T15:52:06.948Z,1.40
2018-04-01T15:54:34.251Z,1.70
2018-04-01T15:57:01.615Z,1.60
2018-04-01T15:59:28.963Z,1.83
2018-04-01T16:01:56.340Z,1.60
2018-04-01T16:04:23.689Z,1.50
2018-04-01T16:06:51.747Z,1.40
2018-04-01T16:09:19.872Z,1.77
2018-04-01T16:11:47.211Z,1.40
2018-04-01T16:14:14.571Z,1.27
2018-04-01T16:16:41.907Z,1.63
2018-04-01T16:19:09.330Z,1.17
2018-04-01T16:21:36.713Z,1.37
2018-04-01T16:24:05.823Z,1.50
2018-04-01T16:26:33.198Z,1.60
2018-04-01T16:29:01.013Z,1.40
2018-04-01T16:31:28.362Z,1.27
2018-04-01T16:33:56.506Z,1.50
2018-04-01T16:36:24.534Z,1.57
2018-04-01T16:38:51.985Z,1.73
2018-04-01T16:41:19.387Z,1.40
2018-04-01T16:43:46.960Z,1.30
2018-04-01T16:46:14.390Z,1.40
2018-04-01T16:48:42.471Z,1.50
2018-04-01T16:51:09.849Z,1.53
2018-04-01T16:53:37.188Z,1.70
2018-04-01T16:56:04.644Z,1.87
2018-04-01T16:58:32.000Z,1.70
2018-04-01T17:00:59.340Z,1.60
2018-04-01T17:03:26.688Z,2.00
2018-04-01T17:05:54.024Z,1.50
2018-04-01T17:08:21.378Z,1.63
2018-04-01T17:10:48.728Z,1.93
2018-04-01T17:13:16.108Z,1.80
2018-04-01T17:15:43.462Z,1.43
2018-04-01T17:18:10.826Z,1.70
2018-04-01T17:20:38.286Z,1.70
2018-04-01T17:23:22.926Z,1.67
2018-04-01T17:25:50.446Z,1.43
2018-04-01T17:28:18.822Z,1.70
2018-04-01T17:30:47.021Z,1.70
2018-04-01T17:33:14.445Z,1.40
2018-04-01T17:35:46.878Z,1.30
2018-04-01T17:38:14.273Z,1.80
2018-04-01T17:40:41.645Z,1.70
2018-04-01T17:43:09.095Z,1.73
2018-04-01T17:45:36.557Z,1.90
2018-04-01T17:48:03.999Z,1.97
2018-04-01T17:50:31.335Z,1.87
2018-04-01T17:52:58.694Z,1.80
2018-04-01T17:55:26.064Z,1.77
2018-04-01T17:57:54.230Z,1.80
2018-04-01T18:00:21.939Z,1.97
2018-04-01T18:02:49.861Z,1.93
2018-04-01T18:05:17.930Z,2.03
2018-04-01T18:07:45.691Z,2.07
2018-04-01T18:10:13.162Z,1.83
2018-04-01T18:12:40.508Z,1.90
2018-04-01T18:15:08.762Z,2.30
2018-04-01T18:17:36.139Z,2.00
2018-04-01T18:20:03.505Z,2.03
2018-04-01T18:22:31.631Z,2.40
2018-04-01T18:24:59.002Z,2.00
2018-04-01T18:27:26.354Z,2.23
2018-04-01T18:29:54.248Z,2.23
2018-04-01T18:32:21.624Z,2.50
2018-04-01T18:34:49.740Z,2.30
2018-04-01T18:37:17.096Z,2.60
2018-04-01T18:39:44.462Z,2.10
2018-04-01T18:42:12.346Z,2.40
2018-04-01T18:44:39.706Z,2.30
2018-04-01T18:47:07.073Z,2.20
2018-04-01T18:49:34.414Z,2.30
2018-04-01T18:52:01.828Z,2.17
2018-04-01T18:54:29.192Z,2.57
2018-04-01T18:56:56.540Z,2.70
2018-04-01T18:59:23.960Z,2.17
2018-04-01T19:01:51.333Z,2.30
2018-04-01T19:04:18.817Z,2.50
2018-04-01T19:06:46.175Z,2.33
2018-04-01T19:09:14.281Z,2.50
2018-04-01T19:11:42.417Z,2.30
2018-04-01T19:14:09.870Z,2.03
2018-04-01T19:16:52.799Z,2.50
2018-04-01T19:19:20.894Z,2.10
2018-04-01T19:21:48.999Z,2.33
2018-04-01T19:24:17.099Z,2.30
2018-04-01T19:26:45.187Z,2.53
2018-04-01T19:29:13.284Z,2.20
2018-04-01T19:31:41.877Z,2.57
2018-04-01T19:34:10.746Z,2.30
2018-04-01T19:36:38.830Z,2.30
2018-04-01T19:39:07.057Z,2.20
2018-04-01T19:41:35.259Z,2.63
2018-04-01T19:44:03.448Z,2.33
2018-04-01T19:46:31.530Z,2.57
2018-04-01T19:49:00.209Z,2.37
2018-04-01T19:51:28.352Z,2.73
2018-04-01T19:53:56.496Z,2.43
2018-04-01T19:56:25.020Z,3.07
2018-04-01T19:58:53.252Z,2.63
2018-04-01T20:01:21.371Z,3.00
2018-04-01T20:03:49.498Z,2.70
2018-04-01T20:06:17.727Z,2.93
2018-04-01T20:08:45.913Z,3.23
2018-04-01T20:11:13.997Z,2.67
2018-04-01T20:13:42.622Z,2.70
2018-04-01T20:16:10.792Z,2.70
2018-04-01T20:18:38.993Z,2.73
2018-04-01T20:21:08.513Z,2.87
2018-04-01T20:23:36.635Z,2.50
2018-04-01T20:26:04.743Z,2.70
2018-04-01T20:28:32.917Z,3.00
2018-04-01T20:31:01.052Z,2.50
2018-04-01T20:33:29.136Z,2.40
2018-04-01T20:35:57.494Z,2.73
2018-04-01T20:38:25.631Z,2.47
2018-04-01T20:40:53.773Z,2.20
2018-04-01T20:43:21.874Z,2.50
2018-04-01T20:45:50.044Z,1.83
2018-04-01T20:48:18.141Z,2.40
2018-04-01T20:50:46.294Z,2.53
2018-04-01T20:53:14.444Z,2.53
2018-04-01T20:55:42.528Z,2.77
2018-04-01T20:58:10.700Z,2.30
2018-04-01T21:00:38.793Z,2.80
2018-04-01T21:03:06.966Z,2.83
2018-04-01T21:05:35.051Z,2.33
2018-04-01T21:08:04.417Z,2.30
2018-04-01T21:10:33.278Z,2.27
2018-04-01T21:13:01.393Z,2.67
2018-04-01T21:15:29.511Z,3.00
2018-04-01T21:17:57.660Z,2.97
2018-04-01T21:20:25.784Z,2.47
2018-04-01T21:22:53.919Z,2.97
2018-04-01T21:25:22.021Z,2.50
2018-04-01T21:27:50.107Z,2.90
2018-04-01T21:30:18.208Z,3.07
2018-04-01T21:32:47.288Z,2.83
2018-04-01T21:35:15.387Z,2.70
2018-04-01T21:37:43.516Z,3.23
2018-04-01T21:40:11.681Z,3.40
2018-04-01T21:42:39.785Z,2.97
2018-04-01T21:45:07.879Z,3.00
2018-04-01T21:47:35.951Z,2.67
2018-04-01T21:50:04.098Z,2.70
2018-04-01T21:52:32.340Z,2.90
2018-04-01T21:55:00.477Z,3.00
2018-04-01T21:57:28.556Z,2.97
2018-04-01T21:59:56.691Z,2.87
2018-04-01T22:02:24.792Z,3.13
2018-04-01T22:04:52.870Z,2.80
2018-04-01T22:07:20.979Z,3.20
2018-04-01T22:09:49.825Z,3.30
2018-04-01T22:12:17.932Z,2.40
2018-04-01T22:14:46.078Z,3.17
2018-04-01T22:17:14.104Z,3.20
2018-04-01T22:19:42.187Z,3.10
2018-04-01T22:22:10.360Z,3.63
2018-04-01T22:24:38.650Z,3.27
2018-04-01T22:27:06.926Z,3.60
2018-04-01T22:29:35.114Z,3.80
2018-04-01T22:32:03.340Z,3.50
2018-04-01T22:34:31.555Z,3.77
2018-04-01T22:36:59.714Z,3.53
2018-04-01T22:39:27.808Z,4.10
2018-04-01T22:41:56.666Z,3.83
2018-04-01T22:44:24.750Z,3.83
2018-04-01T22:46:52.849Z,4.30
2018-04-01T22:49:21.097Z,3.97
2018-04-01T22:51:49.269Z,4.07
2018-04-01T22:54:17.343Z,4.13
2018-04-01T22:56:45.441Z,4.43
2018-04-01T22:59:13.527Z,4.73
2018-04-01T23:01:41.626Z,4.00
2018-04-01T23:04:09.735Z,4.03
2018-04-01T23:06:37.869Z,4.10
2018-04-01T23:09:06.102Z,3.57
2018-04-01T23:11:34.239Z,3.80
2018-04-01T23:14:02.345Z,3.93
2018-04-01T23:16:30.474Z,3.87
2018-04-01T23:18:58.557Z,4.13
2018-04-01T23:21:26.661Z,3.90
2018-04-01T23:23:54.761Z,4.47
2018-04-01T23:26:22.861Z,4.40
2018-04-01T23:28:50.948Z,3.80
2018-04-01T23:31:19.097Z,3.93
2018-04-01T23:33:47.193Z,3.73
2018-04-01T23:36:15.301Z,3.70
2018-04-01T23:38:43.406Z,3.47
2018-04-01T23:41:11.513Z,3.80
2018-04-01T23:43:39.621Z,3.67
2018-04-01T23:46:07.766Z,3.57
2018-04-01T23:48:35.880Z,3.90
2018-04-01T23:51:03.967Z,3.83
2018-04-01T23:53:32.070Z,3.73
2018-04-01T23:56:00.182Z,3.47
2018-04-01T23:58:28.268Z,3.43
